sensor_id;sensor_type;location;lat;lon;timestamp;pressure;altitude;pressure_sealevel;temperature;humidity
68807;BME280;55800;54.272;18.558;2023-11-19T00:02:23;101531.75;;;3.17;95.62
68807;BME280;55800;54.272;18.558;2023-11-19T00:04:53;101525.56;;;3.17;95.62
68807;BME280;55800;54.272;18.558;2023-11-19T00:07:22;101527.31;;;3.16;95.65
68807;BME280;55800;54.272;18.558;2023-11-19T00:10:04;101526.44;;;3.17;95.53
68807;BME280;55800;54.272;18.558;2023-11-19T00:12:35;101523.78;;;3.16;95.78
68807;BME280;55800;54.272;18.558;2023-11-19T00:15:05;101517.66;;;3.15;95.88
68807;BME280;55800;54.272;18.558;2023-11-19T00:17:40;101519.38;;;3.16;95.90
68807;BME280;55800;54.272;18.558;2023-11-19T00:20:14;101518.50;;;3.21;96.11
68807;BME280;55800;54.272;18.558;2023-11-19T00:22:44;101505.31;;;3.30;96.18
68807;BME280;55800;54.272;18.558;2023-11-19T00:25:20;101500.06;;;3.42;95.33
68807;BME280;55800;54.272;18.558;2023-11-19T00:27:50;101503.59;;;3.41;94.55
68807;BME280;55800;54.272;18.558;2023-11-19T00:30:22;101508.00;;;3.51;94.75
68807;BME280;55800;54.272;18.558;2023-11-19T00:32:51;101489.50;;;3.48;94.28
68807;BME280;55800;54.272;18.558;2023-11-19T00:35:21;101496.53;;;3.43;94.40
68807;BME280;55800;54.272;18.558;2023-11-19T00:37:50;101503.59;;;3.42;94.45
68807;BME280;55800;54.272;18.558;2023-11-19T00:40:24;101500.06;;;3.39;94.43
68807;BME280;55800;54.272;18.558;2023-11-19T00:42:53;101496.53;;;3.37;94.61
68807;BME280;55800;54.272;18.558;2023-11-19T00:45:23;101501.81;;;3.37;94.53
68807;BME280;55800;54.272;18.558;2023-11-19T00:47:53;101502.69;;;3.34;94.41
68807;BME280;55800;54.272;18.558;2023-11-19T00:50:23;101499.19;;;3.31;94.45
68807;BME280;55800;54.272;18.558;2023-11-19T00:52:52;101493.00;;;3.29;94.71
68807;BME280;55800;54.272;18.558;2023-11-19T00:55:24;101494.75;;;3.27;94.59
68807;BME280;55800;54.272;18.558;2023-11-19T00:57:54;101492.13;;;3.28;94.10
68807;BME280;55800;54.272;18.558;2023-11-19T01:00:24;101476.25;;;3.27;94.47
68807;BME280;55800;54.272;18.558;2023-11-19T01:02:55;101471.84;;;3.26;94.52
68807;BME280;55800;54.272;18.558;2023-11-19T01:05:25;101480.66;;;3.22;94.49
68807;BME280;55800;54.272;18.558;2023-11-19T01:07:54;101487.69;;;3.20;94.67
68807;BME280;55800;54.272;18.558;2023-11-19T01:10:25;101482.41;;;3.20;94.73
68807;BME280;55800;54.272;18.558;2023-11-19T01:12:54;101478.03;;;3.20;94.62
68807;BME280;55800;54.272;18.558;2023-11-19T01:15:24;101476.25;;;3.19;94.67
68807;BME280;55800;54.272;18.558;2023-11-19T01:17:54;101463.94;;;3.18;94.68
68807;BME280;55800;54.272;18.558;2023-11-19T01:20:23;101457.75;;;3.17;94.69
68807;BME280;55800;54.272;18.558;2023-11-19T01:22:55;101455.13;;;3.17;94.62
68807;BME280;55800;54.272;18.558;2023-11-19T01:25:26;101452.47;;;3.17;94.54
68807;BME280;55800;54.272;18.558;2023-11-19T01:27:55;101452.47;;;3.17;94.58
68807;BME280;55800;54.272;18.558;2023-11-19T01:30:26;101448.94;;;3.18;94.50
68807;BME280;55800;54.272;18.558;2023-11-19T01:32:56;101445.41;;;3.16;94.07
68807;BME280;55800;54.272;18.558;2023-11-19T01:35:26;101450.72;;;3.18;94.24
68807;BME280;55800;54.272;18.558;2023-11-19T01:37:55;101453.34;;;3.16;94.25
68807;BME280;55800;54.272;18.558;2023-11-19T01:40:26;101446.31;;;3.15;94.04
68807;BME280;55800;54.272;18.558;2023-11-19T01:42:55;101448.06;;;3.15;94.12
68807;BME280;55800;54.272;18.558;2023-11-19T01:45:28;101445.41;;;3.15;93.84
68807;BME280;55800;54.272;18.558;2023-11-19T01:48:02;101433.06;;;3.14;94.24
68807;BME280;55800;54.272;18.558;2023-11-19T01:50:32;101438.34;;;3.12;94.07
68807;BME280;55800;54.272;18.558;2023-11-19T01:53:03;101428.69;;;3.11;94.00
68807;BME280;55800;54.272;18.558;2023-11-19T01:55:33;101432.19;;;3.12;93.86
68807;BME280;55800;54.272;18.558;2023-11-19T01:58:03;101426.03;;;3.11;93.81
68807;BME280;55800;54.272;18.558;2023-11-19T02:00:33;101416.34;;;3.10;93.79
68807;BME280;55800;54.272;18.558;2023-11-19T02:03:02;101412.81;;;3.10;93.89
68807;BME280;55800;54.272;18.558;2023-11-19T02:05:33;101405.78;;;3.09;93.65
68807;BME280;55800;54.272;18.558;2023-11-19T02:08:03;101404.91;;;3.08;93.21
68807;BME280;55800;54.272;18.558;2023-11-19T02:10:34;101390.81;;;3.06;93.60
68807;BME280;55800;54.272;18.558;2023-11-19T02:13:03;101392.56;;;3.04;92.88
68807;BME280;55800;54.272;18.558;2023-11-19T02:15:34;101378.47;;;3.02;93.42
68807;BME280;55800;54.272;18.558;2023-11-19T02:18:20;101368.78;;;3.01;93.46
68807;BME280;55800;54.272;18.558;2023-11-19T02:20:50;101367.03;;;2.99;93.48
68807;BME280;55800;54.272;18.558;2023-11-19T02:23:20;101357.34;;;2.99;93.27
68807;BME280;55800;54.272;18.558;2023-11-19T02:26:05;101353.84;;;2.99;93.47
68807;BME280;55800;54.272;18.558;2023-11-19T02:28:41;101349.41;;;2.95;93.67
68807;BME280;55800;54.272;18.558;2023-11-19T02:31:11;101332.69;;;2.94;93.63
68807;BME280;55800;54.272;18.558;2023-11-19T02:33:41;101341.47;;;2.93;93.25
68807;BME280;55800;54.272;18.558;2023-11-19T02:36:10;101324.75;;;2.93;93.46
68807;BME280;55800;54.272;18.558;2023-11-19T02:38:40;101329.19;;;2.92;93.50
68807;BME280;55800;54.272;18.558;2023-11-19T02:41:09;101323.91;;;2.92;93.60
68807;BME280;55800;54.272;18.558;2023-11-19T02:43:40;101318.59;;;2.91;93.68
68807;BME280;55800;54.272;18.558;2023-11-19T02:46:09;101312.44;;;2.89;93.17
68807;BME280;55800;54.272;18.558;2023-11-19T02:48:42;101308.94;;;2.88;93.56
68807;BME280;55800;54.272;18.558;2023-11-19T02:51:12;101310.69;;;2.88;93.31
68807;BME280;55800;54.272;18.558;2023-11-19T02:53:42;101300.09;;;2.85;92.88
68807;BME280;55800;54.272;18.558;2023-11-19T02:56:16;101304.50;;;2.83;93.08
68807;BME280;55800;54.272;18.558;2023-11-19T02:58:54;101294.84;;;2.82;93.21
68807;BME280;55800;54.272;18.558;2023-11-19T03:01:25;101293.97;;;2.80;93.12
68807;BME280;55800;54.272;18.558;2023-11-19T03:04:00;101290.41;;;2.76;92.97
68807;BME280;55800;54.272;18.558;2023-11-19T03:06:31;101280.75;;;2.75;93.13
68807;BME280;55800;54.272;18.558;2023-11-19T03:09:01;101293.06;;;2.73;92.90
68807;BME280;55800;54.272;18.558;2023-11-19T03:11:34;101284.28;;;2.71;92.97
68807;BME280;55800;54.272;18.558;2023-11-19T03:14:05;101280.75;;;2.69;92.85
68807;BME280;55800;54.272;18.558;2023-11-19T03:16:35;101275.47;;;2.66;92.58
68807;BME280;55800;54.272;18.558;2023-11-19T03:19:05;101269.31;;;2.64;92.71
68807;BME280;55800;54.272;18.558;2023-11-19T03:21:34;101253.44;;;2.61;92.67
68807;BME280;55800;54.272;18.558;2023-11-19T03:24:05;101256.09;;;2.60;92.56
68807;BME280;55800;54.272;18.558;2023-11-19T03:26:36;101249.94;;;2.56;92.56
68807;BME280;55800;54.272;18.558;2023-11-19T03:29:07;101246.44;;;2.54;92.59
68807;BME280;55800;54.272;18.558;2023-11-19T03:31:41;101239.38;;;2.53;92.45
68807;BME280;55800;54.272;18.558;2023-11-19T03:34:10;101244.66;;;2.53;92.21
68807;BME280;55800;54.272;18.558;2023-11-19T03:36:40;101236.72;;;2.49;92.06
68807;BME280;55800;54.272;18.558;2023-11-19T03:39:11;101233.22;;;2.44;92.10
68807;BME280;55800;54.272;18.558;2023-11-19T03:41:40;101234.97;;;2.40;92.12
68807;BME280;55800;54.272;18.558;2023-11-19T03:44:11;101228.81;;;2.38;92.12
68807;BME280;55800;54.272;18.558;2023-11-19T03:46:41;101227.03;;;2.34;92.12
68807;BME280;55800;54.272;18.558;2023-11-19T03:49:11;101226.16;;;2.33;92.10
68807;BME280;55800;54.272;18.558;2023-11-19T03:51:40;101223.53;;;2.29;91.98
68807;BME280;55800;54.272;18.558;2023-11-19T03:54:10;101219.13;;;2.26;91.91
68807;BME280;55800;54.272;18.558;2023-11-19T03:56:40;101207.69;;;2.23;91.81
68807;BME280;55800;54.272;18.558;2023-11-19T03:59:10;101204.16;;;2.21;91.90
68807;BME280;55800;54.272;18.558;2023-11-19T04:01:41;101197.13;;;2.21;91.65
68807;BME280;55800;54.272;18.558;2023-11-19T04:04:10;101187.47;;;2.17;91.40
68807;BME280;55800;54.272;18.558;2023-11-19T04:06:40;101180.41;;;2.16;91.50
68807;BME280;55800;54.272;18.558;2023-11-19T04:09:10;101180.44;;;2.13;91.41
68807;BME280;55800;54.272;18.558;2023-11-19T04:11:39;101176.03;;;2.11;91.61
68807;BME280;55800;54.272;18.558;2023-11-19T04:14:10;101172.50;;;2.09;91.74
68807;BME280;55800;54.272;18.558;2023-11-19T04:16:40;101165.47;;;2.08;91.77
68807;BME280;55800;54.272;18.558;2023-11-19T04:19:09;101169.84;;;2.06;91.67
68807;BME280;55800;54.272;18.558;2023-11-19T04:21:40;101160.19;;;2.06;91.94
68807;BME280;55800;54.272;18.558;2023-11-19T04:24:10;101154.03;;;2.04;91.86
68807;BME280;55800;54.272;18.558;2023-11-19T04:26:41;101144.34;;;2.02;91.95
68807;BME280;55800;54.272;18.558;2023-11-19T04:29:15;101149.66;;;2.05;92.65
68807;BME280;55800;54.272;18.558;2023-11-19T04:31:46;101141.72;;;2.02;92.57
68807;BME280;55800;54.272;18.558;2023-11-19T04:34:15;101139.97;;;2.01;92.78
68807;BME280;55800;54.272;18.558;2023-11-19T04:36:45;101132.94;;;1.97;92.86
68807;BME280;55800;54.272;18.558;2023-11-19T04:39:14;101132.94;;;1.97;92.91
68807;BME280;55800;54.272;18.558;2023-11-19T04:41:47;101117.09;;;1.95;92.72
68807;BME280;55800;54.272;18.558;2023-11-19T04:44:18;101111.84;;;1.94;92.78
68807;BME280;55800;54.272;18.558;2023-11-19T04:46:48;101099.53;;;1.94;92.96
68807;BME280;55800;54.272;18.558;2023-11-19T04:49:17;101095.13;;;1.92;92.48
68807;BME280;55800;54.272;18.558;2023-11-19T04:51:46;101096.03;;;1.92;92.75
68807;BME280;55800;54.272;18.558;2023-11-19T04:54:16;101098.66;;;1.91;92.90
68807;BME280;55800;54.272;18.558;2023-11-19T04:56:47;101092.50;;;1.90;93.06
68807;BME280;55800;54.272;18.558;2023-11-19T04:59:18;101091.63;;;1.90;93.09
68807;BME280;55800;54.272;18.558;2023-11-19T05:01:47;101089.84;;;1.87;93.13
68807;BME280;55800;54.272;18.558;2023-11-19T05:04:17;101080.19;;;1.86;93.05
68807;BME280;55800;54.272;18.558;2023-11-19T05:06:47;101088.09;;;1.83;93.16
68807;BME280;55800;54.272;18.558;2023-11-19T05:09:17;101088.09;;;1.85;92.98
68807;BME280;55800;54.272;18.558;2023-11-19T05:11:46;101086.34;;;1.84;92.99
68807;BME280;55800;54.272;18.558;2023-11-19T05:14:20;101088.09;;;1.82;92.95
68807;BME280;55800;54.272;18.558;2023-11-19T05:16:50;101088.09;;;1.82;92.99
68807;BME280;55800;54.272;18.558;2023-11-19T05:19:19;101088.09;;;1.82;93.06
68807;BME280;55800;54.272;18.558;2023-11-19T05:21:49;101083.69;;;1.81;93.19
68807;BME280;55800;54.272;18.558;2023-11-19T05:24:20;101082.81;;;1.79;93.05
68807;BME280;55800;54.272;18.558;2023-11-19T05:26:49;101072.28;;;1.76;93.15
68807;BME280;55800;54.272;18.558;2023-11-19T05:29:20;101063.50;;;1.74;93.03
68807;BME280;55800;54.272;18.558;2023-11-19T05:31:50;101058.22;;;1.72;93.36
68807;BME280;55800;54.272;18.558;2023-11-19T05:34:19;101048.56;;;1.73;93.13
68807;BME280;55800;54.272;18.558;2023-11-19T05:36:49;101052.94;;;1.69;93.12
68807;BME280;55800;54.272;18.558;2023-11-19T05:39:18;101045.91;;;1.73;93.20
68807;BME280;55800;54.272;18.558;2023-11-19T05:41:48;101033.63;;;1.72;93.14
68807;BME280;55800;54.272;18.558;2023-11-19T05:44:19;101027.47;;;1.70;92.83
68807;BME280;55800;54.272;18.558;2023-11-19T05:46:49;101022.22;;;1.70;92.85
68807;BME280;55800;54.272;18.558;2023-11-19T05:49:18;101028.31;;;1.66;92.81
68807;BME280;55800;54.272;18.558;2023-11-19T05:51:48;101025.69;;;1.64;92.60
68807;BME280;55800;54.272;18.558;2023-11-19T05:54:17;101023.97;;;1.63;92.86
68807;BME280;55800;54.272;18.558;2023-11-19T05:56:48;101027.44;;;1.64;93.15
68807;BME280;55800;54.272;18.558;2023-11-19T05:59:17;101022.19;;;1.68;94.25
68807;BME280;55800;54.272;18.558;2023-11-19T06:01:48;101022.19;;;1.73;94.46
68807;BME280;55800;54.272;18.558;2023-11-19T06:04:17;101011.66;;;1.54;93.20
68807;BME280;55800;54.272;18.558;2023-11-19T06:06:47;101003.72;;;1.38;93.01
68807;BME280;55800;54.272;18.558;2023-11-19T06:09:16;101007.22;;;1.26;93.01
68807;BME280;55800;54.272;18.558;2023-11-19T06:11:46;101008.97;;;1.18;93.13
68807;BME280;55800;54.272;18.558;2023-11-19T06:14:17;101013.34;;;1.10;92.91
68807;BME280;55800;54.272;18.558;2023-11-19T06:16:47;101000.13;;;1.04;92.90
68807;BME280;55800;54.272;18.558;2023-11-19T06:19:17;101008.03;;;0.97;92.73
68807;BME280;55800;54.272;18.558;2023-11-19T06:21:46;101003.63;;;0.91;92.75
68807;BME280;55800;54.272;18.558;2023-11-19T06:24:16;101002.72;;;0.86;92.84
68807;BME280;55800;54.272;18.558;2023-11-19T06:26:45;100986.91;;;0.80;92.74
68807;BME280;55800;54.272;18.558;2023-11-19T06:29:15;101001.81;;;0.78;92.65
68807;BME280;55800;54.272;18.558;2023-11-19T06:31:49;101000.91;;;0.73;92.73
68807;BME280;55800;54.272;18.558;2023-11-19T06:34:18;100996.50;;;0.70;92.59
68807;BME280;55800;54.272;18.558;2023-11-19T06:36:48;100987.75;;;0.67;92.65
68807;BME280;55800;54.272;18.558;2023-11-19T06:39:17;100985.09;;;0.62;92.72
68807;BME280;55800;54.272;18.558;2023-11-19T06:41:48;100982.53;;;0.85;93.90
68807;BME280;55800;54.272;18.558;2023-11-19T06:44:17;100980.75;;;0.75;92.69
68807;BME280;55800;54.272;18.558;2023-11-19T06:46:49;100971.06;;;0.63;92.38
68807;BME280;55800;54.272;18.558;2023-11-19T06:49:18;100957.00;;;0.58;92.83
68807;BME280;55800;54.272;18.558;2023-11-19T06:51:51;100966.66;;;0.56;92.92
68807;BME280;55800;54.272;18.558;2023-11-19T06:54:20;100965.78;;;0.54;92.73
68807;BME280;55800;54.272;18.558;2023-11-19T06:56:49;100962.25;;;0.52;92.91
68807;BME280;55800;54.272;18.558;2023-11-19T06:59:19;100951.75;;;0.51;92.99
68807;BME280;55800;54.272;18.558;2023-11-19T07:01:50;100952.59;;;0.50;93.17
68807;BME280;55800;54.272;18.558;2023-11-19T07:04:19;100947.31;;;0.47;93.15
68807;BME280;55800;54.272;18.558;2023-11-19T07:06:48;100941.19;;;0.48;93.36
68807;BME280;55800;54.272;18.558;2023-11-19T07:09:20;100932.41;;;0.47;93.42
68807;BME280;55800;54.272;18.558;2023-11-19T07:11:50;100933.31;;;0.48;93.50
68807;BME280;55800;54.272;18.558;2023-11-19T07:14:23;100938.59;;;0.51;93.61
68807;BME280;55800;54.272;18.558;2023-11-19T07:16:54;100931.56;;;0.50;93.83
68807;BME280;55800;54.272;18.558;2023-11-19T07:19:23;100926.31;;;0.53;93.90
68807;BME280;55800;54.272;18.558;2023-11-19T07:21:53;100926.31;;;0.53;93.98
68807;BME280;55800;54.272;18.558;2023-11-19T07:24:22;100924.56;;;0.55;93.98
68807;BME280;55800;54.272;18.558;2023-11-19T07:26:52;100923.69;;;0.57;94.12
68807;BME280;55800;54.272;18.558;2023-11-19T07:29:22;100925.44;;;0.58;94.09
68807;BME280;55800;54.272;18.558;2023-11-19T07:31:55;100920.22;;;0.61;94.37
68807;BME280;55800;54.272;18.558;2023-11-19T07:34:25;100921.94;;;0.64;94.59
68807;BME280;55800;54.272;18.558;2023-11-19T07:36:55;100904.41;;;0.66;94.58
68807;BME280;55800;54.272;18.558;2023-11-19T07:39:27;100903.56;;;0.70;94.56
68807;BME280;55800;54.272;18.558;2023-11-19T07:41:56;100898.28;;;0.73;94.53
68807;BME280;55800;54.272;18.558;2023-11-19T07:44:25;100894.78;;;0.78;94.41
68807;BME280;55800;54.272;18.558;2023-11-19T07:46:56;100886.03;;;0.81;94.65
68807;BME280;55800;54.272;18.558;2023-11-19T07:49:26;100883.41;;;0.81;94.84
68807;BME280;55800;54.272;18.558;2023-11-19T07:51:55;100881.66;;;0.86;94.77
68807;BME280;55800;54.272;18.558;2023-11-19T07:54:25;100889.59;;;1.10;96.79
68807;BME280;55800;54.272;18.558;2023-11-19T07:56:54;100886.06;;;1.20;95.47
68807;BME280;55800;54.272;18.558;2023-11-19T07:59:24;100866.78;;;1.12;94.97
68807;BME280;55800;54.272;18.558;2023-11-19T08:01:53;100874.66;;;1.09;94.82
68807;BME280;55800;54.272;18.558;2023-11-19T08:04:24;100867.63;;;1.07;95.01
68807;BME280;55800;54.272;18.558;2023-11-19T08:06:54;100869.41;;;1.09;95.13
68807;BME280;55800;54.272;18.558;2023-11-19T08:09:23;100868.50;;;1.13;95.21
68807;BME280;55800;54.272;18.558;2023-11-19T08:11:52;100866.75;;;1.15;95.27
68807;BME280;55800;54.272;18.558;2023-11-19T08:14:24;100863.25;;;1.19;95.27
68807;BME280;55800;54.272;18.558;2023-11-19T08:16:53;100850.97;;;1.23;95.08
68807;BME280;55800;54.272;18.558;2023-11-19T08:19:24;100850.06;;;1.24;95.09
68807;BME280;55800;54.272;18.558;2023-11-19T08:21:56;100858.88;;;1.29;95.19
68807;BME280;55800;54.272;18.558;2023-11-19T08:24:26;100843.06;;;1.33;95.13
68807;BME280;55800;54.272;18.558;2023-11-19T08:26:55;100843.94;;;1.37;95.17
68807;BME280;55800;54.272;18.558;2023-11-19T08:29:28;100846.56;;;1.41;95.23
68807;BME280;55800;54.272;18.558;2023-11-19T08:31:59;100837.75;;;1.45;95.18
68807;BME280;55800;54.272;18.558;2023-11-19T08:34:31;100829.84;;;1.48;95.17
68807;BME280;55800;54.272;18.558;2023-11-19T08:37:01;100819.31;;;1.54;95.33
68807;BME280;55800;54.272;18.558;2023-11-19T08:39:30;100815.75;;;1.71;96.70
68807;BME280;55800;54.272;18.558;2023-11-19T08:42:00;100799.03;;;1.82;95.92
68807;BME280;55800;54.272;18.558;2023-11-19T08:44:29;100800.78;;;1.77;95.48
68807;BME280;55800;54.272;18.558;2023-11-19T08:46:58;100784.09;;;1.75;95.39
68807;BME280;55800;54.272;18.558;2023-11-19T08:49:28;100783.22;;;1.75;95.20
68807;BME280;55800;54.272;18.558;2023-11-19T08:51:59;100774.41;;;1.79;95.17
68807;BME280;55800;54.272;18.558;2023-11-19T08:54:28;100775.28;;;1.81;95.33
68807;BME280;55800;54.272;18.558;2023-11-19T08:56:58;100782.34;;;1.80;95.22
68807;BME280;55800;54.272;18.558;2023-11-19T08:59:27;100781.44;;;1.84;95.57
68807;BME280;55800;54.272;18.558;2023-11-19T09:01:56;100773.53;;;1.86;95.44
68807;BME280;55800;54.272;18.558;2023-11-19T09:04:26;100763.84;;;1.88;95.31
68807;BME280;55800;54.272;18.558;2023-11-19T09:06:59;100768.22;;;1.92;95.36
68807;BME280;55800;54.272;18.558;2023-11-19T09:09:28;100762.09;;;1.90;95.08
68807;BME280;55800;54.272;18.558;2023-11-19T09:11:59;100762.94;;;1.95;94.96
68807;BME280;55800;54.272;18.558;2023-11-19T09:14:28;100759.41;;;1.96;95.08
68807;BME280;55800;54.272;18.558;2023-11-19T09:16:58;100756.78;;;1.96;94.71
68807;BME280;55800;54.272;18.558;2023-11-19T09:19:28;100749.75;;;1.95;94.77
68807;BME280;55800;54.272;18.558;2023-11-19T09:21:58;100755.03;;;1.96;94.17
68807;BME280;55800;54.272;18.558;2023-11-19T09:24:28;100751.47;;;1.97;94.48
68807;BME280;55800;54.272;18.558;2023-11-19T09:26:57;100747.09;;;1.98;94.72
68807;BME280;55800;54.272;18.558;2023-11-19T09:29:28;100749.75;;;1.99;94.36
68807;BME280;55800;54.272;18.558;2023-11-19T09:32:00;100733.91;;;2.01;94.73
68807;BME280;55800;54.272;18.558;2023-11-19T09:34:32;100729.50;;;2.00;94.45
68807;BME280;55800;54.272;18.558;2023-11-19T09:37:03;100731.22;;;2.04;94.24
68807;BME280;55800;54.272;18.558;2023-11-19T09:39:48;100721.53;;;2.09;93.96
68807;BME280;55800;54.272;18.558;2023-11-19T09:42:18;100715.41;;;2.07;93.89
68807;BME280;55800;54.272;18.558;2023-11-19T09:44:48;100712.78;;;2.07;93.83
68807;BME280;55800;54.272;18.558;2023-11-19T09:47:19;100713.63;;;2.09;93.61
68807;BME280;55800;54.272;18.558;2023-11-19T09:49:49;100711.00;;;2.12;93.57
68807;BME280;55800;54.272;18.558;2023-11-19T09:52:22;100707.44;;;2.14;93.56
68807;BME280;55800;54.272;18.558;2023-11-19T09:54:53;100704.81;;;2.16;93.46
68807;BME280;55800;54.272;18.558;2023-11-19T09:57:22;100708.31;;;2.15;93.72
68807;BME280;55800;54.272;18.558;2023-11-19T09:59:52;100694.25;;;2.14;93.89
68807;BME280;55800;54.272;18.558;2023-11-19T10:02:22;100685.44;;;2.17;93.74
68807;BME280;55800;54.272;18.558;2023-11-19T10:04:53;100675.78;;;2.17;93.57
68807;BME280;55800;54.272;18.558;2023-11-19T10:07:25;100676.66;;;2.18;93.26
68807;BME280;55800;54.272;18.558;2023-11-19T10:09:55;100668.72;;;2.21;93.32
68807;BME280;55800;54.272;18.558;2023-11-19T10:12:24;100669.59;;;2.21;93.12
68807;BME280;55800;54.272;18.558;2023-11-19T10:14:56;100657.31;;;2.19;93.50
68807;BME280;55800;54.272;18.558;2023-11-19T10:17:28;100645.84;;;2.21;93.63
68807;BME280;55800;54.272;18.558;2023-11-19T10:19:58;100650.25;;;2.21;93.95
68807;BME280;55800;54.272;18.558;2023-11-19T10:22:29;100639.69;;;2.21;93.57
68807;BME280;55800;54.272;18.558;2023-11-19T10:24:58;100629.13;;;2.24;93.11
68807;BME280;55800;54.272;18.558;2023-11-19T10:27:28;100630.91;;;2.22;93.84
68807;BME280;55800;54.272;18.558;2023-11-19T10:29:59;100624.75;;;2.24;93.96
68807;BME280;55800;54.272;18.558;2023-11-19T10:32:34;100621.19;;;2.27;93.70
68807;BME280;55800;54.272;18.558;2023-11-19T10:35:06;100611.53;;;2.29;93.17
68807;BME280;55800;54.272;18.558;2023-11-19T10:37:38;100610.59;;;2.31;93.63
68807;BME280;55800;54.272;18.558;2023-11-19T10:40:08;100602.69;;;2.31;93.58
68807;BME280;55800;54.272;18.558;2023-11-19T10:42:39;100594.78;;;2.33;93.61
68807;BME280;55800;54.272;18.558;2023-11-19T10:45:22;100591.25;;;2.32;93.47
68807;BME280;55800;54.272;18.558;2023-11-19T10:47:53;100585.97;;;2.34;93.39
68807;BME280;55800;54.272;18.558;2023-11-19T10:50:23;100578.09;;;2.31;93.38
68807;BME280;55800;54.272;18.558;2023-11-19T10:52:57;100571.00;;;2.34;93.31
68807;BME280;55800;54.272;18.558;2023-11-19T10:55:28;100568.34;;;2.36;92.83
68807;BME280;55800;54.272;18.558;2023-11-19T10:58:00;100571.84;;;2.40;93.25
68807;BME280;55800;54.272;18.558;2023-11-19T11:00:37;100570.97;;;2.39;93.77
68807;BME280;55800;54.272;18.558;2023-11-19T11:03:11;100562.16;;;2.40;93.37
68807;BME280;55800;54.272;18.558;2023-11-19T11:05:41;100553.38;;;2.41;93.66
68807;BME280;55800;54.272;18.558;2023-11-19T11:08:14;100557.72;;;2.45;93.56
68807;BME280;55800;54.272;18.558;2023-11-19T11:10:45;100552.44;;;2.48;93.25
68807;BME280;55800;54.272;18.558;2023-11-19T11:13:17;100541.00;;;2.48;93.07
68807;BME280;55800;54.272;18.558;2023-11-19T11:15:47;100532.19;;;2.47;93.26
68807;BME280;55800;54.272;18.558;2023-11-19T11:18:17;100534.81;;;2.49;93.13
68807;BME280;55800;54.272;18.558;2023-11-19T11:20:47;100519.88;;;2.46;93.47
68807;BME280;55800;54.272;18.558;2023-11-19T11:23:52;100523.41;;;2.48;93.59
68807;BME280;55800;54.272;18.558;2023-11-19T11:26:41;100518.97;;;2.50;93.14
68807;BME280;55800;54.272;18.558;2023-11-19T11:29:24;100506.66;;;2.49;92.66
68807;BME280;55800;54.272;18.558;2023-11-19T11:31:56;100497.88;;;2.49;93.07
68807;BME280;55800;54.272;18.558;2023-11-19T11:34:58;100504.91;;;2.50;93.20
68807;BME280;55800;54.272;18.558;2023-11-19T11:37:37;100499.66;;;2.47;93.06
68807;BME280;55800;54.272;18.558;2023-11-19T11:40:14;100492.59;;;2.50;93.13
68807;BME280;55800;54.272;18.558;2023-11-19T11:42:48;100492.59;;;2.49;93.53
68807;BME280;55800;54.272;18.558;2023-11-19T11:45:19;100488.19;;;2.49;93.19
68807;BME280;55800;54.272;18.558;2023-11-19T11:48:16;100484.69;;;2.50;93.80
68807;BME280;55800;54.272;18.558;2023-11-19T11:50:53;100484.63;;;2.53;93.45
68807;BME280;55800;54.272;18.558;2023-11-19T11:53:23;100481.97;;;2.55;93.40
68807;BME280;55800;54.272;18.558;2023-11-19T11:55:58;100476.72;;;2.53;93.55
68807;BME280;55800;54.272;18.558;2023-11-19T11:58:31;100471.44;;;2.53;93.88
68807;BME280;55800;54.272;18.558;2023-11-19T12:01:04;100472.25;;;2.57;94.09
68807;BME280;55800;54.272;18.558;2023-11-19T12:03:38;100459.91;;;2.60;93.76
68807;BME280;55800;54.272;18.558;2023-11-19T12:06:08;100454.63;;;2.60;93.82
68807;BME280;55800;54.272;18.558;2023-11-19T12:08:39;100451.09;;;2.61;93.86
68807;BME280;55800;54.272;18.558;2023-11-19T12:11:17;100442.31;;;2.62;93.89
68807;BME280;55800;54.272;18.558;2023-11-19T12:13:54;100429.97;;;2.64;93.82
68807;BME280;55800;54.272;18.558;2023-11-19T12:16:31;100427.34;;;2.63;93.90
68807;BME280;55800;54.272;18.558;2023-11-19T12:19:05;100417.72;;;2.59;94.00
68807;BME280;55800;54.272;18.558;2023-11-19T12:21:36;100418.53;;;2.62;94.06
68807;BME280;55800;54.272;18.558;2023-11-19T12:24:07;100415.00;;;2.65;93.79
68807;BME280;55800;54.272;18.558;2023-11-19T12:26:39;100412.34;;;2.66;93.88
68807;BME280;55800;54.272;18.558;2023-11-19T12:29:10;100409.69;;;2.66;94.40
68807;BME280;55800;54.272;18.558;2023-11-19T12:31:44;100401.78;;;2.66;94.54
68807;BME280;55800;54.272;18.558;2023-11-19T12:34:14;100400.03;;;2.64;94.38
68807;BME280;55800;54.272;18.558;2023-11-19T12:36:43;100393.84;;;2.66;94.13
68807;BME280;55800;54.272;18.558;2023-11-19T12:39:12;100393.84;;;2.66;94.23
68807;BME280;55800;54.272;18.558;2023-11-19T12:41:54;100380.66;;;2.66;94.52
68807;BME280;55800;54.272;18.558;2023-11-19T12:44:23;100372.78;;;2.65;94.54
68807;BME280;55800;54.272;18.558;2023-11-19T12:46:59;100370.09;;;2.66;94.69
68807;BME280;55800;54.272;18.558;2023-11-19T12:49:29;100364.88;;;2.62;94.61
68807;BME280;55800;54.272;18.558;2023-11-19T12:51:58;100364.84;;;2.63;94.86
68807;BME280;55800;54.272;18.558;2023-11-19T12:54:33;100353.44;;;2.63;95.09
68807;BME280;55800;54.272;18.558;2023-11-19T12:57:05;100348.16;;;2.63;94.53
68807;BME280;55800;54.272;18.558;2023-11-19T12:59:34;100345.50;;;2.64;94.61
68807;BME280;55800;54.272;18.558;2023-11-19T13:02:04;100341.97;;;2.64;94.67
68807;BME280;55800;54.272;18.558;2023-11-19T13:04:34;100334.16;;;2.58;94.51
68807;BME280;55800;54.272;18.558;2023-11-19T13:07:04;100341.19;;;2.59;94.80
68807;BME280;55800;54.272;18.558;2023-11-19T13:09:34;100335.03;;;2.58;94.88
68807;BME280;55800;54.272;18.558;2023-11-19T13:12:14;100329.75;;;2.58;94.88